createdAt,value
2019-03-19T00:03:10.652Z,98.70
2019-03-19T00:06:19.307Z,98.50
2019-03-19T00:09:27.913Z,98.50
2019-03-19T00:12:36.654Z,98.40
2019-03-19T00:15:45.358Z,98.50
2019-03-19T00:18:53.971Z,98.50
2019-03-19T00:22:02.581Z,98.50
2019-03-19T00:25:11.514Z,98.50
2019-03-19T00:28:20.022Z,98.40
2019-03-19T00:31:28.991Z,98.20
2019-03-19T00:34:37.585Z,98.60
2019-03-19T00:37:56.477Z,98.20
2019-03-19T00:41:15.764Z,98.10
2019-03-19T00:44:35.100Z,98.10
2019-03-19T00:47:43.879Z,97.90
2019-03-19T00:50:52.599Z,97.70
2019-03-19T00:54:01.203Z,97.60
2019-03-19T00:57:09.965Z,97.60
2019-03-19T01:00:18.953Z,97.60
2019-03-19T01:03:27.621Z,97.50
2019-03-19T01:06:36.331Z,97.50
2019-03-19T01:09:44.914Z,97.50
2019-03-19T01:12:53.567Z,97.40
2019-03-19T01:16:02.375Z,97.50
2019-03-19T01:19:11.005Z,97.70
2019-03-19T01:22:19.645Z,97.60
2019-03-19T01:25:39.643Z,97.80
2019-03-19T01:28:48.308Z,97.90
2019-03-19T01:31:56.967Z,98.00
2019-03-19T01:35:06.104Z,98.00
2019-03-19T01:38:14.726Z,98.20
2019-03-19T01:41:22.899Z,98.30
2019-03-19T01:44:41.892Z,98.50
2019-03-19T01:47:50.581Z,98.80
2019-03-19T01:51:00.425Z,99.10
2019-03-19T01:54:09.130Z,99.00
2019-03-19T01:57:17.744Z,99.00
2019-03-19T02:00:26.517Z,99.10
2019-03-19T02:03:35.149Z,99.30
2019-03-19T02:06:54.083Z,99.40
2019-03-19T02:10:02.739Z,99.20
2019-03-19T02:13:11.370Z,99.30
2019-03-19T02:16:20.136Z,99.40
2019-03-19T02:19:29.860Z,99.20
2019-03-19T02:22:38.451Z,99.30
2019-03-19T02:25:57.416Z,99.00
2019-03-19T02:29:05.947Z,99.10
2019-03-19T02:32:14.526Z,99.20
2019-03-19T02:35:23.333Z,99.10
2019-03-19T02:38:33.043Z,99.20
2019-03-19T02:41:51.875Z,98.90
2019-03-19T02:45:00.736Z,98.80
2019-03-19T02:48:20.026Z,98.70
2019-03-19T02:51:28.632Z,98.40
2019-03-19T02:54:37.246Z,98.40
2019-03-19T02:57:45.924Z,98.20
2019-03-19T03:00:54.625Z,98.20
2019-03-19T03:04:03.525Z,98.30
2019-03-19T03:07:12.318Z,98.50
2019-03-19T03:10:21.040Z,98.60
2019-03-19T03:13:29.541Z,98.10
2019-03-19T03:16:38.194Z,98.00
2019-03-19T03:19:47.357Z,98.00
2019-03-19T03:22:57.363Z,98.10
2019-03-19T03:26:16.426Z,98.00
2019-03-19T03:29:25.077Z,97.80
2019-03-19T03:32:34.841Z,97.60
2019-03-19T03:35:43.555Z,97.50
2019-03-19T03:38:52.241Z,97.60
2019-03-19T03:42:00.882Z,97.50
2019-03-19T03:45:10.268Z,97.60
2019-03-19T03:48:18.770Z,97.80
2019-03-19T03:51:26.995Z,97.80
2019-03-19T03:54:45.994Z,97.90
2019-03-19T03:57:54.603Z,98.10
2019-03-19T04:01:03.260Z,98.10
2019-03-19T04:04:10.485Z,98.20
2019-03-19T04:07:20.621Z,98.10
2019-03-19T04:10:29.256Z,98.30
2019-03-19T04:13:37.865Z,98.10
2019-03-19T04:16:56.615Z,98.50
2019-03-19T04:20:06.115Z,98.20
2019-03-19T04:23:14.680Z,98.50
2019-03-19T04:26:33.628Z,98.30
2019-03-19T04:29:42.208Z,98.10
2019-03-19T04:32:50.896Z,98.10
2019-03-19T04:35:59.723Z,98.00
2019-03-19T04:39:10.533Z,98.10
2019-03-19T04:42:19.151Z,98.00
2019-03-19T04:45:27.879Z,98.00
2019-03-19T04:48:36.486Z,97.80
2019-03-19T04:51:45.053Z,98.10
2019-03-19T04:54:53.769Z,98.30
2019-03-19T04:58:02.391Z,98.40
2019-03-19T05:01:11.009Z,98.50
2019-03-19T05:04:19.632Z,98.50
2019-03-19T05:07:38.510Z,98.50
2019-03-19T05:10:47.129Z,98.50
2019-03-19T05:13:55.763Z,98.40
2019-03-19T05:17:04.284Z,98.40
2019-03-19T05:20:13.231Z,98.60
2019-03-19T05:23:21.876Z,98.80
2019-03-19T05:26:30.413Z,98.80
2019-03-19T05:29:39.021Z,99.10
2019-03-19T05:32:47.686Z,99.20
2019-03-19T05:36:06.727Z,99.50
2019-03-19T05:39:15.496Z,99.50
2019-03-19T05:42:24.089Z,99.40
2019-03-19T05:45:32.808Z,99.20
2019-03-19T05:48:41.503Z,99.50
2019-03-19T05:51:51.538Z,99.90
2019-03-19T05:55:00.415Z,99.90
2019-03-19T05:58:09.000Z,99.90
2019-03-19T06:01:17.622Z,99.90
2019-03-19T06:04:26.229Z,99.90
2019-03-19T06:07:45.293Z,99.90
2019-03-19T06:10:53.980Z,99.90
2019-03-19T06:14:02.525Z,99.90
2019-03-19T06:17:11.268Z,99.90
2019-03-19T06:20:20.017Z,99.90
2019-03-19T06:23:28.623Z,99.90
2019-03-19T06:26:37.327Z,99.90
2019-03-19T06:29:45.954Z,99.90
2019-03-19T06:32:55.952Z,99.90
2019-03-19T06:36:16.072Z,99.90
2019-03-19T06:39:24.669Z,99.30
2019-03-19T06:42:33.376Z,98.80
2019-03-19T06:45:42.031Z,98.50
2019-03-19T06:48:50.833Z,98.50
2019-03-19T06:51:59.432Z,98.60
2019-03-19T06:55:18.388Z,98.60
2019-03-19T06:58:26.972Z,98.70
2019-03-19T07:01:35.571Z,98.80
2019-03-19T07:04:44.127Z,98.90
2019-03-19T07:07:52.740Z,98.60
2019-03-19T07:11:01.423Z,98.20
2019-03-19T07:14:10.079Z,98.20
2019-03-19T07:17:28.901Z,97.90
2019-03-19T07:20:37.491Z,97.90
2019-03-19T07:23:46.118Z,97.00
2019-03-19T07:26:54.920Z,96.60
2019-03-19T07:30:03.406Z,95.40
2019-03-19T07:33:12.001Z,94.10
2019-03-19T07:36:20.681Z,92.50
2019-03-19T07:39:39.341Z,91.60
2019-03-19T07:42:47.960Z,90.60
2019-03-19T07:45:56.573Z,90.30
2019-03-19T07:49:05.221Z,89.20
2019-03-19T07:52:13.742Z,89.70
2019-03-19T07:55:22.446Z,90.30
2019-03-19T07:58:40.531Z,90.90
2019-03-19T08:01:41.478Z,91.60
2019-03-19T08:05:00.371Z,91.20
2019-03-19T08:08:09.128Z,91.50
2019-03-19T08:11:17.713Z,91.00
2019-03-19T08:14:26.366Z,91.00
2019-03-19T08:17:37.763Z,87.60
2019-03-19T08:20:56.457Z,86.70
2019-03-19T08:24:05.073Z,84.70
2019-03-19T08:27:13.758Z,84.60
2019-03-19T08:30:24.617Z,82.20
2019-03-19T08:33:32.744Z,78.70
2019-03-19T08:36:41.382Z,77.70
2019-03-19T08:39:49.620Z,73.60
2019-03-19T08:43:08.886Z,70.20
2019-03-19T08:46:17.418Z,73.20
2019-03-19T08:49:26.114Z,74.70
2019-03-19T08:52:34.731Z,72.70
2019-03-19T08:55:43.311Z,74.40
2019-03-19T08:58:51.938Z,75.90
2019-03-19T09:02:00.534Z,74.60
2019-03-19T09:05:19.514Z,70.60
2019-03-19T09:08:28.282Z,66.50
2019-03-19T09:11:36.875Z,69.30
2019-03-19T09:14:45.487Z,72.40
2019-03-19T09:17:54.121Z,73.30
2019-03-19T09:21:02.944Z,73.10
2019-03-19T09:24:11.616Z,71.90
2019-03-19T09:27:20.218Z,72.20
2019-03-19T09:30:28.842Z,73.20
2019-03-19T09:33:47.652Z,68.60
2019-03-19T09:36:57.659Z,65.70
2019-03-19T09:40:09.454Z,59.90
2019-03-19T09:43:18.065Z,60.30
2019-03-19T09:46:26.723Z,61.10
2019-03-19T09:49:35.333Z,58.40
2019-03-19T09:53:00.197Z,57.00
2019-03-19T09:56:08.983Z,53.70
2019-03-19T09:59:26.770Z,52.00
2019-03-19T10:02:27.825Z,50.40
2019-03-19T10:05:36.439Z,48.90
2019-03-19T10:08:48.031Z,48.50
2019-03-19T10:12:12.906Z,47.90
2019-03-19T10:15:21.886Z,46.20
2019-03-19T10:18:30.679Z,46.60
2019-03-19T10:21:41.106Z,46.00
2019-03-19T10:24:49.830Z,44.60
2019-03-19T10:27:58.455Z,44.60
2019-03-19T10:31:07.142Z,45.60
2019-03-19T10:34:15.788Z,47.50
2019-03-19T10:37:24.533Z,46.60
2019-03-19T10:40:43.230Z,45.40
2019-03-19T10:43:51.912Z,43.70
2019-03-19T10:47:00.616Z,42.30
2019-03-19T10:50:15.308Z,42.30
2019-03-19T10:53:23.790Z,41.40
2019-03-19T10:56:31.010Z,43.20
2019-03-19T10:59:53.060Z,45.20
2019-03-19T11:03:01.573Z,45.20
2019-03-19T11:06:10.202Z,45.60
2019-03-19T11:09:18.718Z,45.10
2019-03-19T11:12:27.354Z,42.80
2019-03-19T11:15:35.966Z,44.10
2019-03-19T11:18:54.718Z,45.80
2019-03-19T11:22:03.341Z,46.70
2019-03-19T11:25:14.939Z,45.30
2019-03-19T11:28:23.432Z,44.60
2019-03-19T11:31:32.046Z,42.80
2019-03-19T11:34:50.878Z,41.40
2019-03-19T11:37:59.537Z,42.10
2019-03-19T11:41:09.459Z,41.20
2019-03-19T11:44:18.234Z,40.10
2019-03-19T11:47:26.898Z,39.30
2019-03-19T11:50:35.653Z,39.60
2019-03-19T11:53:44.244Z,41.80
2019-03-19T11:57:03.043Z,44.10
2019-03-19T12:00:30.145Z,46.10
2019-03-19T12:03:51.738Z,46.80
2019-03-19T12:07:10.650Z,47.40
2019-03-19T12:10:19.252Z,44.30
2019-03-19T12:13:27.887Z,41.40
2019-03-19T12:16:36.517Z,40.30
2019-03-19T12:19:45.018Z,41.20
2019-03-19T12:22:53.750Z,41.00
2019-03-19T12:26:02.365Z,41.20
2019-03-19T12:29:21.233Z,39.80
2019-03-19T12:32:31.681Z,39.20
2019-03-19T12:35:40.294Z,39.30
2019-03-19T12:38:48.950Z,41.90
2019-03-19T12:41:57.566Z,44.20
2019-03-19T12:45:08.739Z,45.70
2019-03-19T12:48:27.784Z,46.30
2019-03-19T12:51:36.400Z,45.60
2019-03-19T12:54:45.031Z,42.30
2019-03-19T12:57:53.645Z,39.90
2019-03-19T13:01:02.261Z,40.60
2019-03-19T13:04:11.050Z,42.50
2019-03-19T13:07:19.714Z,44.60
2019-03-19T13:10:28.305Z,45.30
2019-03-19T13:13:47.147Z,46.40
2019-03-19T13:16:55.759Z,47.70
2019-03-19T13:20:04.582Z,48.10
2019-03-19T13:23:13.115Z,50.60
2019-03-19T13:26:21.742Z,52.40
2019-03-19T13:29:30.351Z,54.90
2019-03-19T13:32:38.980Z,53.00
2019-03-19T13:35:47.579Z,48.90
2019-03-19T13:39:09.686Z,45.50
2019-03-19T13:42:18.346Z,44.60
2019-03-19T13:45:26.987Z,46.10
2019-03-19T13:48:35.605Z,48.50
2019-03-19T13:51:44.210Z,51.20
2019-03-19T13:55:03.094Z,53.20
2019-03-19T13:58:11.929Z,53.70
2019-03-19T14:01:20.511Z,54.40
2019-03-19T14:04:29.113Z,55.40
2019-03-19T14:07:37.709Z,54.90
2019-03-19T14:10:46.250Z,55.50
2019-03-19T14:13:55.831Z,55.20
2019-03-19T14:17:06.677Z,53.10
2019-03-19T14:20:25.690Z,54.50
2019-03-19T14:23:34.284Z,56.50
2019-03-19T14:26:42.978Z,56.00
2019-03-19T14:29:51.789Z,57.70
2019-03-19T14:33:00.813Z,58.50
2019-03-19T14:36:10.404Z,58.80
2019-03-19T14:39:19.145Z,58.70
2019-03-19T14:42:27.871Z,59.10
2019-03-19T14:45:46.661Z,58.40
2019-03-19T14:48:55.340Z,57.00
2019-03-19T14:52:03.925Z,56.90
2019-03-19T14:55:12.648Z,56.60
2019-03-19T14:58:21.330Z,56.10
2019-03-19T15:01:29.957Z,55.70
2019-03-19T15:04:38.546Z,56.00
2019-03-19T15:07:48.673Z,56.70
2019-03-19T15:11:07.587Z,56.70
2019-03-19T15:14:16.177Z,57.00
2019-03-19T15:17:24.747Z,56.20
2019-03-19T15:20:33.361Z,56.30
2019-03-19T15:23:42.078Z,56.60
2019-03-19T15:26:50.861Z,56.10
2019-03-19T15:29:59.551Z,55.30
2019-03-19T15:33:08.318Z,55.30
2019-03-19T15:36:17.048Z,55.50
2019-03-19T15:39:35.766Z,56.70
2019-03-19T15:42:44.381Z,57.30
2019-03-19T15:45:54.112Z,57.40
2019-03-19T15:49:02.817Z,58.90
2019-03-19T15:52:11.499Z,58.10
2019-03-19T15:55:18.804Z,58.20
2019-03-19T15:58:27.425Z,58.20
2019-03-19T16:01:46.389Z,57.90
2019-03-19T16:04:55.049Z,59.00
2019-03-19T16:08:03.599Z,61.40
2019-03-19T16:11:12.211Z,62.70
2019-03-19T16:14:21.073Z,63.80
2019-03-19T16:17:29.755Z,63.80
2019-03-19T16:20:38.366Z,65.50
2019-03-19T16:23:46.981Z,65.40
2019-03-19T16:27:05.777Z,64.80
2019-03-19T16:30:16.571Z,67.00
2019-03-19T16:33:35.419Z,67.60
2019-03-19T16:36:44.010Z,68.00
2019-03-19T16:39:52.893Z,69.00
2019-03-19T16:43:01.516Z,68.20
2019-03-19T16:46:10.157Z,68.80
2019-03-19T16:49:18.764Z,68.40
2019-03-19T16:52:27.371Z,67.90
2019-03-19T16:55:36.007Z,65.80
2019-03-19T16:58:54.758Z,69.30
2019-03-19T17:02:03.337Z,70.40
2019-03-19T17:05:14.075Z,71.70
2019-03-19T17:08:22.635Z,72.50
2019-03-19T17:11:31.161Z,74.70
2019-03-19T17:14:39.772Z,75.10
2019-03-19T17:17:48.268Z,76.10
2019-03-19T17:20:56.884Z,76.70
2019-03-19T17:24:15.726Z,76.90
2019-03-19T17:27:24.093Z,77.00
2019-03-19T17:30:32.673Z,76.80
2019-03-19T17:33:41.724Z,77.30
2019-03-19T17:36:50.329Z,78.00
2019-03-19T17:39:59.002Z,78.80
2019-03-19T17:43:08.751Z,79.10
2019-03-19T17:46:17.288Z,80.00
2019-03-19T17:49:26.001Z,80.30
2019-03-19T17:52:34.549Z,80.80
2019-03-19T17:55:43.243Z,81.30
2019-03-19T17:58:51.848Z,81.30
2019-03-19T18:02:00.461Z,81.50
2019-03-19T18:05:09.514Z,81.90
2019-03-19T18:08:18.045Z,82.00
2019-03-19T18:11:36.746Z,82.10
2019-03-19T18:14:45.227Z,83.10
2019-03-19T18:17:53.833Z,83.50
2019-03-19T18:21:02.435Z,83.70
2019-03-19T18:24:11.354Z,84.00
2019-03-19T18:27:20.061Z,84.50
2019-03-19T18:30:28.782Z,84.60
2019-03-19T18:33:37.433Z,84.80
2019-03-19T18:36:46.057Z,85.50
2019-03-19T18:40:05.691Z,85.90
2019-03-19T18:43:14.267Z,86.10
2019-03-19T18:46:22.882Z,86.50
2019-03-19T18:49:41.813Z,86.50
2019-03-19T18:52:50.415Z,86.90
2019-03-19T18:55:59.008Z,87.40
2019-03-19T18:59:07.635Z,87.80
2019-03-19T19:02:16.244Z,88.70
2019-03-19T19:05:24.853Z,89.10
2019-03-19T19:08:33.449Z,89.00
2019-03-19T19:11:52.364Z,88.90
2019-03-19T19:15:02.055Z,89.20
2019-03-19T19:18:10.740Z,90.20
2019-03-19T19:21:19.366Z,89.40
2019-03-19T19:24:57.536Z,90.00
2019-03-19T19:28:08.429Z,90.10
2019-03-19T19:31:17.150Z,90.10
2019-03-19T19:34:55.112Z,90.20
2019-03-19T19:38:03.860Z,90.30
2019-03-19T19:41:12.501Z,90.50
2019-03-19T19:44:21.012Z,90.70
2019-03-19T19:47:29.584Z,91.10
2019-03-19T19:50:38.060Z,90.70
2019-03-19T19:53:56.887Z,90.70
2019-03-19T19:57:05.411Z,91.10
2019-03-19T20:00:16.269Z,91.50
2019-03-19T20:03:24.788Z,91.50
2019-03-19T20:06:33.423Z,91.50
2019-03-19T20:09:41.950Z,91.40
2019-03-19T20:12:50.512Z,91.60
2019-03-19T20:15:59.094Z,91.50
2019-03-19T20:19:17.902Z,91.20
2019-03-19T20:22:26.516Z,91.80
2019-03-19T20:25:35.214Z,92.20
2019-03-19T20:28:43.764Z,91.90
2019-03-19T20:31:52.264Z,92.00
2019-03-19T20:35:00.988Z,92.30
2019-03-19T20:38:09.560Z,92.40
2019-03-19T20:41:28.453Z,92.80
2019-03-19T20:44:36.956Z,93.00
2019-03-19T20:47:45.550Z,93.10
2019-03-19T20:50:55.017Z,92.90
2019-03-19T20:54:04.875Z,93.10
2019-03-19T20:57:13.574Z,92.90
2019-03-19T21:00:25.680Z,92.60
2019-03-19T21:03:36.063Z,92.50
2019-03-19T21:06:44.600Z,92.70
2019-03-19T21:09:53.515Z,93.10
2019-03-19T21:13:02.000Z,93.30
2019-03-19T21:16:10.647Z,93.30
2019-03-19T21:19:19.255Z,93.50
2019-03-19T21:22:38.147Z,93.30
2019-03-19T21:25:46.699Z,93.50
2019-03-19T21:28:55.160Z,93.60
2019-03-19T21:32:02.292Z,93.80
2019-03-19T21:35:11.037Z,93.90
2019-03-19T21:38:19.528Z,94.20
2019-03-19T21:41:38.307Z,94.10
2019-03-19T21:44:46.779Z,94.20
2019-03-19T21:47:55.267Z,94.20
2019-03-19T21:51:03.839Z,93.80
2019-03-19T21:54:12.437Z,93.60
2019-03-19T21:57:33.351Z,93.80
2019-03-19T22:00:53.003Z,94.10
2019-03-19T22:04:03.268Z,94.30
2019-03-19T22:07:11.964Z,94.40
2019-03-19T22:10:20.617Z,94.70
2019-03-19T22:13:30.317Z,94.20
2019-03-19T22:16:38.947Z,94.50
2019-03-19T22:19:47.580Z,94.50
2019-03-19T22:23:06.367Z,94.60
2019-03-19T22:26:15.064Z,94.60
2019-03-19T22:29:23.692Z,94.70
2019-03-19T22:32:32.203Z,94.80
2019-03-19T22:35:40.834Z,95.00
2019-03-19T22:38:49.527Z,95.10
2019-03-19T22:41:58.156Z,95.30
2019-03-19T22:45:08.519Z,95.50
2019-03-19T22:48:27.320Z,95.30
2019-03-19T22:51:35.804Z,95.30
2019-03-19T22:54:44.403Z,95.30
2019-03-19T22:57:52.971Z,95.30
2019-03-19T23:01:01.880Z,95.50
2019-03-19T23:04:10.487Z,95.80
2019-03-19T23:07:19.142Z,95.70
2019-03-19T23:10:39.622Z,95.70
2019-03-19T23:13:48.443Z,95.70
2019-03-19T23:16:57.066Z,95.90
2019-03-19T23:20:06.639Z,95.80
2019-03-19T23:23:25.493Z,95.60
2019-03-19T23:26:34.160Z,95.70
2019-03-19T23:29:42.696Z,95.70
2019-03-19T23:32:51.298Z,95.70
2019-03-19T23:35:59.805Z,95.90
2019-03-19T23:39:18.433Z,96.00
2019-03-19T23:42:27.041Z,96.00
2019-03-19T23:45:35.756Z,96.00
2019-03-19T23:48:44.311Z,95.90
2019-03-19T23:51:52.938Z,96.00
2019-03-19T23:55:01.555Z,96.20
2019-03-19T23:58:10.166Z,96.30
